createdAt,value
2018-03-26T00:01:41.623Z,25.52
2018-03-26T00:04:10.537Z,27.35
2018-03-26T00:06:38.771Z,26.20
2018-03-26T00:09:07.675Z,27.73
2018-03-26T00:11:35.812Z,25.40
2018-03-26T00:14:04.020Z,26.00
2018-03-26T00:16:32.231Z,25.10
2018-03-26T00:19:00.464Z,24.50
2018-03-26T00:21:28.754Z,24.45
2018-03-26T00:23:57.682Z,25.92
2018-03-26T00:26:25.816Z,24.48
2018-03-26T00:28:54.737Z,25.15
2018-03-26T00:31:22.898Z,24.33
2018-03-26T00:33:51.034Z,25.02
2018-03-26T00:36:19.179Z,25.27
2018-03-26T00:38:47.311Z,24.70
2018-03-26T00:41:15.554Z,24.25
2018-03-26T00:43:44.461Z,23.87
2018-03-26T00:46:13.383Z,24.45
2018-03-26T00:48:41.503Z,26.33
2018-03-26T00:51:09.648Z,27.20
2018-03-26T00:53:43.678Z,24.65
2018-03-26T00:56:11.860Z,25.50
2018-03-26T00:58:40.009Z,25.02
2018-03-26T01:01:08.150Z,25.50
2018-03-26T01:03:36.289Z,26.70
2018-03-26T01:06:05.198Z,28.87
2018-03-26T01:08:33.336Z,26.15
2018-03-26T01:11:01.499Z,27.05
2018-03-26T01:13:29.632Z,27.20
2018-03-26T01:15:57.767Z,27.02
2018-03-26T01:18:26.711Z,26.98
2018-03-26T01:20:55.841Z,27.08
2018-03-26T01:23:24.797Z,26.85
2018-03-26T01:25:52.930Z,24.98
2018-03-26T01:28:21.090Z,28.12
2018-03-26T01:30:49.226Z,24.17
2018-03-26T01:33:17.374Z,21.58
2018-03-26T01:35:45.499Z,25.40
2018-03-26T01:38:13.688Z,21.95
2018-03-26T01:40:42.574Z,23.55
2018-03-26T01:43:10.754Z,24.87
2018-03-26T01:45:38.894Z,25.62
2018-03-26T01:48:07.075Z,24.23
2018-03-26T01:50:35.211Z,24.55
2018-03-26T01:53:04.139Z,24.65
2018-03-26T01:55:33.112Z,25.02
2018-03-26T01:58:01.259Z,25.33
2018-03-26T02:00:29.410Z,27.15
2018-03-26T02:02:57.583Z,25.33
2018-03-26T02:05:25.759Z,24.52
2018-03-26T02:07:54.286Z,25.37
2018-03-26T02:10:22.423Z,25.27
2018-03-26T02:12:50.626Z,27.95
2018-03-26T02:15:18.787Z,26.08
2018-03-26T02:17:46.927Z,26.27
2018-03-26T02:20:15.094Z,25.60
2018-03-26T02:22:43.234Z,27.87
2018-03-26T02:25:12.143Z,27.00
2018-03-26T02:27:40.273Z,25.37
2018-03-26T02:30:08.416Z,25.50
2018-03-26T02:32:37.351Z,25.83
2018-03-26T02:35:06.246Z,28.30
2018-03-26T02:37:35.182Z,25.70
2018-03-26T02:40:03.366Z,23.17
2018-03-26T02:42:31.506Z,25.15
2018-03-26T02:44:59.654Z,27.05
2018-03-26T02:47:27.799Z,27.27
2018-03-26T02:49:55.999Z,22.87
2018-03-26T02:52:24.129Z,22.92
2018-03-26T02:54:53.042Z,26.08
2018-03-26T02:57:21.186Z,25.83
2018-03-26T02:59:49.331Z,24.20
2018-03-26T03:02:17.542Z,24.40
2018-03-26T03:04:45.711Z,23.10
2018-03-26T03:07:13.839Z,26.33
2018-03-26T03:09:42.733Z,27.23
2018-03-26T03:12:10.873Z,25.58
2018-03-26T03:14:39.011Z,28.40
2018-03-26T03:17:07.179Z,26.23
2018-03-26T03:19:35.342Z,27.55
2018-03-26T03:22:03.556Z,25.92
2018-03-26T03:24:31.686Z,27.20
2018-03-26T03:27:00.613Z,27.48
2018-03-26T03:29:28.751Z,23.95
2018-03-26T03:31:56.910Z,23.08
2018-03-26T03:34:25.042Z,24.27
2018-03-26T03:36:54.075Z,24.60
2018-03-26T03:39:22.210Z,27.70
2018-03-26T03:41:50.370Z,28.42
2018-03-26T03:44:18.493Z,25.62
2018-03-26T03:46:46.633Z,26.67
2018-03-26T03:49:14.799Z,25.52
2018-03-26T03:51:42.957Z,26.48
2018-03-26T03:54:11.103Z,26.77
2018-03-26T03:56:39.258Z,29.37
2018-03-26T03:59:07.387Z,25.25
2018-03-26T04:01:35.557Z,25.20
2018-03-26T04:04:03.728Z,23.12
2018-03-26T04:06:32.627Z,26.98
2018-03-26T04:09:00.774Z,26.00
2018-03-26T04:11:29.680Z,23.92
2018-03-26T04:13:58.588Z,22.83
2018-03-26T04:16:26.798Z,25.15
2018-03-26T04:18:54.954Z,27.02
2018-03-26T04:21:23.089Z,24.70
2018-03-26T04:23:51.225Z,25.50
2018-03-26T04:26:19.346Z,22.73
2018-03-26T04:28:47.491Z,26.40
2018-03-26T04:31:16.387Z,25.62
2018-03-26T04:33:45.301Z,26.10
2018-03-26T04:36:13.425Z,25.35
2018-03-26T04:38:42.338Z,25.48
2018-03-26T04:41:10.474Z,24.98
2018-03-26T04:43:38.628Z,23.60
2018-03-26T04:46:06.755Z,24.60
2018-03-26T04:48:34.916Z,27.60
2018-03-26T04:51:03.187Z,23.70
2018-03-26T04:53:32.099Z,29.85
2018-03-26T04:56:00.264Z,26.70
2018-03-26T04:58:29.154Z,27.67
2018-03-26T05:00:57.334Z,28.15
2018-03-26T05:03:38.134Z,25.58
2018-03-26T05:06:06.281Z,26.75
2018-03-26T05:08:34.426Z,27.17
2018-03-26T05:11:03.331Z,29.23
2018-03-26T05:13:31.470Z,26.73
2018-03-26T05:16:00.382Z,26.60
2018-03-26T05:18:28.508Z,26.95
2018-03-26T05:20:56.658Z,28.10
2018-03-26T05:23:24.855Z,25.33
2018-03-26T05:25:53.018Z,25.90
2018-03-26T05:28:21.151Z,25.20
2018-03-26T05:30:50.210Z,26.70
2018-03-26T05:33:18.333Z,25.88
2018-03-26T05:35:46.536Z,23.05
2018-03-26T05:38:14.658Z,25.23
2018-03-26T05:40:42.812Z,27.90
2018-03-26T05:43:11.698Z,27.27
2018-03-26T05:45:40.610Z,28.20
2018-03-26T05:48:08.738Z,28.70
2018-03-26T05:50:36.894Z,28.05
2018-03-26T05:53:05.026Z,30.60
2018-03-26T05:55:33.170Z,28.87
2018-03-26T05:58:02.064Z,30.30
2018-03-26T06:00:30.978Z,31.65
2018-03-26T06:02:59.139Z,27.20
2018-03-26T06:05:27.284Z,28.10
2018-03-26T06:07:56.200Z,29.40
2018-03-26T06:10:25.119Z,29.63
2018-03-26T06:12:53.283Z,32.30
2018-03-26T06:15:21.422Z,30.95
2018-03-26T06:17:50.334Z,27.77
2018-03-26T06:20:18.485Z,30.17
2018-03-26T06:22:46.640Z,27.90
2018-03-26T06:25:14.783Z,28.77
2018-03-26T06:27:43.698Z,30.83
2018-03-26T06:30:12.602Z,29.90
2018-03-26T06:32:40.850Z,30.12
2018-03-26T06:35:08.954Z,29.80
2018-03-26T06:51:04.524Z,42.65
2018-03-26T06:53:32.666Z,42.85
2018-03-26T06:56:00.974Z,42.40
2018-03-26T06:58:29.122Z,42.67
2018-03-26T07:00:57.244Z,41.35
2018-03-26T07:03:25.387Z,48.17
2018-03-26T07:05:54.096Z,54.80
2018-03-26T07:08:22.241Z,42.05
2018-03-26T07:10:50.726Z,35.33
2018-03-26T07:13:18.883Z,37.83
2018-03-26T07:15:47.023Z,38.85
2018-03-26T07:18:15.169Z,38.40
2018-03-26T07:20:43.315Z,41.45
2018-03-26T07:23:12.322Z,42.45
2018-03-26T07:25:40.470Z,31.90
2018-03-26T07:28:09.402Z,36.88
2018-03-26T07:30:37.603Z,33.33
2018-03-26T07:33:05.729Z,31.05
2018-03-26T07:35:33.874Z,30.90
2018-03-26T07:38:02.014Z,26.05
2018-03-26T07:40:30.163Z,26.58
2018-03-26T07:42:58.291Z,30.30
2018-03-26T07:45:26.440Z,27.50
2018-03-26T07:47:54.567Z,30.55
2018-03-26T07:50:22.715Z,29.15
2018-03-26T07:52:52.376Z,31.00
2018-03-26T07:55:20.552Z,29.00
2018-03-26T07:57:48.677Z,26.80
2018-03-26T08:00:16.827Z,28.00
2018-03-26T08:02:45.750Z,28.20
2018-03-26T08:05:13.910Z,26.50
2018-03-26T08:07:42.060Z,28.00
2018-03-26T08:10:10.277Z,28.00
2018-03-26T08:12:38.430Z,28.30
2018-03-26T08:15:07.426Z,28.85
2018-03-26T08:17:35.565Z,26.45
2018-03-26T08:20:04.482Z,27.58
2018-03-26T08:22:32.631Z,28.05
2018-03-26T08:25:01.557Z,28.65
2018-03-26T08:27:29.704Z,29.50
2018-03-26T08:29:58.671Z,29.75
2018-03-26T08:32:26.795Z,31.23
2018-03-26T08:34:54.938Z,31.08
2018-03-26T08:37:23.088Z,31.15
2018-03-26T08:39:51.538Z,31.55
2018-03-26T08:42:19.753Z,32.53
2018-03-26T08:44:47.834Z,31.60
2018-03-26T08:47:15.988Z,31.80
2018-03-26T08:49:44.190Z,31.10
2018-03-26T08:52:12.339Z,31.62
2018-03-26T08:54:40.656Z,32.53
2018-03-26T08:57:09.944Z,26.73
2018-03-26T08:59:38.228Z,31.27
2018-03-26T09:02:06.491Z,30.20
2018-03-26T09:04:34.763Z,27.60
2018-03-26T09:07:02.919Z,31.67
2018-03-26T09:09:31.064Z,27.97
2018-03-26T09:12:00.018Z,30.02
2018-03-26T09:14:28.150Z,32.22
2018-03-26T09:16:56.307Z,28.50
2018-03-26T09:19:25.203Z,28.43
2018-03-26T09:21:53.359Z,28.70
2018-03-26T09:24:21.487Z,32.03
2018-03-26T09:26:49.718Z,27.87
2018-03-26T09:29:17.920Z,29.40
2018-03-26T09:31:46.065Z,27.62
2018-03-26T09:34:14.215Z,30.77
2018-03-26T09:36:42.342Z,30.50
2018-03-26T09:39:10.492Z,32.53
2018-03-26T09:41:38.620Z,31.03
2018-03-26T09:44:06.779Z,32.47
2018-03-26T09:46:34.922Z,31.65
2018-03-26T09:49:03.299Z,31.95
2018-03-26T09:51:31.464Z,32.47
2018-03-26T09:53:59.603Z,30.23
2018-03-26T09:56:28.504Z,32.90
2018-03-26T09:58:57.421Z,32.07
2018-03-26T10:01:25.566Z,34.70
2018-03-26T10:03:54.088Z,34.37
2018-03-26T10:06:22.204Z,35.00
2018-03-26T10:08:51.118Z,32.60
2018-03-26T10:11:19.257Z,35.90
2018-03-26T10:13:47.394Z,34.17
2018-03-26T10:16:15.524Z,33.13
2018-03-26T10:18:44.434Z,32.50
2018-03-26T10:21:12.562Z,33.13
2018-03-26T10:23:40.710Z,33.70
2018-03-26T10:26:09.607Z,32.90
2018-03-26T10:28:37.752Z,33.73
2018-03-26T10:31:05.878Z,32.73
2018-03-26T10:33:34.068Z,36.83
2018-03-26T10:36:02.206Z,32.13
2018-03-26T10:38:31.127Z,33.37
2018-03-26T10:40:59.275Z,34.33
2018-03-26T10:43:27.484Z,34.70
2018-03-26T10:45:55.755Z,34.83
2018-03-26T10:48:23.886Z,31.57
2018-03-26T10:50:52.038Z,32.27
2018-03-26T10:53:20.166Z,33.07
2018-03-26T10:55:48.332Z,35.83
2018-03-26T10:58:16.467Z,35.40
2018-03-26T11:00:44.623Z,30.27
2018-03-26T11:03:12.749Z,36.30
2018-03-26T11:05:40.945Z,38.90
2018-03-26T11:08:09.030Z,39.40
2018-03-26T11:10:37.176Z,35.40
2018-03-26T11:13:05.463Z,35.90
2018-03-26T11:15:33.607Z,37.77
2018-03-26T11:18:01.732Z,34.03
2018-03-26T11:20:29.896Z,34.80
2018-03-26T11:22:58.813Z,35.17
2018-03-26T11:25:26.955Z,37.90
2018-03-26T11:27:55.191Z,36.87
2018-03-26T11:30:23.330Z,34.70
2018-03-26T11:32:52.242Z,34.23
2018-03-26T11:35:20.389Z,34.60
2018-03-26T11:37:48.532Z,35.63
2018-03-26T11:40:16.659Z,36.30
2018-03-26T11:42:45.562Z,35.77
2018-03-26T11:45:13.700Z,35.83
2018-03-26T11:47:42.614Z,33.60
2018-03-26T11:50:10.747Z,37.00
2018-03-26T11:52:38.890Z,36.80
2018-03-26T11:55:07.026Z,37.87
2018-03-26T11:57:35.178Z,36.60
2018-03-26T12:00:03.341Z,34.90
2018-03-26T12:02:31.482Z,36.53
2018-03-26T12:04:59.635Z,36.13
2018-03-26T12:07:27.783Z,40.27
2018-03-26T12:09:55.914Z,37.20
2018-03-26T12:12:24.065Z,41.40
2018-03-26T12:14:52.260Z,40.13
2018-03-26T12:17:21.910Z,37.43
2018-03-26T12:20:01.886Z,37.43
2018-03-26T12:22:30.827Z,39.97
2018-03-26T12:25:05.170Z,34.80
2018-03-26T12:27:33.339Z,37.13
2018-03-26T12:30:09.034Z,35.07
2018-03-26T12:32:37.189Z,34.10
2018-03-26T12:35:17.010Z,37.03
2018-03-26T12:37:45.166Z,34.17
2018-03-26T12:53:41.511Z,35.23
2018-03-26T12:56:09.650Z,33.90
2018-03-26T12:58:50.306Z,35.60
2018-03-26T13:01:30.175Z,36.83
2018-03-26T13:03:58.382Z,39.27
2018-03-26T13:06:26.548Z,32.37
2018-03-26T13:08:55.426Z,30.97
2018-03-26T13:11:23.577Z,31.03
2018-03-26T13:13:51.851Z,33.30
2018-03-26T13:16:20.061Z,28.50
2018-03-26T13:18:48.200Z,34.00
2018-03-26T13:21:16.360Z,28.10
2018-03-26T13:23:44.507Z,26.83
2018-03-26T13:26:12.667Z,27.77
2018-03-26T13:28:40.797Z,27.77
2018-03-26T13:31:08.956Z,24.87
2018-03-26T13:33:37.097Z,25.80
2018-03-26T13:36:06.383Z,26.47
2018-03-26T13:38:34.503Z,25.93
2018-03-26T13:41:02.652Z,27.40
2018-03-26T13:43:30.825Z,28.20
2018-03-26T13:45:58.955Z,26.00
2018-03-26T13:48:27.102Z,24.10
2018-03-26T13:50:55.247Z,24.63
2018-03-26T13:53:23.422Z,21.73
2018-03-26T13:55:51.567Z,20.77
2018-03-26T13:58:19.713Z,22.00
2018-03-26T14:00:47.890Z,20.77
2018-03-26T14:03:16.048Z,22.47
2018-03-26T14:05:44.260Z,23.53
2018-03-26T14:08:24.271Z,23.83
2018-03-26T14:24:19.913Z,25.20
2018-03-26T14:26:48.060Z,29.23
2018-03-26T14:29:16.975Z,29.20
2018-03-26T14:31:45.125Z,30.03
2018-03-26T14:34:14.046Z,29.20
2018-03-26T14:36:42.170Z,29.17
2018-03-26T14:39:10.319Z,29.13
2018-03-26T14:41:38.491Z,29.13
2018-03-26T14:44:06.723Z,27.50
2018-03-26T14:46:34.866Z,30.63
2018-03-26T14:49:03.784Z,30.40
2018-03-26T14:51:31.929Z,30.23
2018-03-26T14:54:00.864Z,30.30
2018-03-26T14:56:29.018Z,34.33
2018-03-26T14:58:57.287Z,38.00
2018-03-26T15:01:25.689Z,39.10
2018-03-26T15:03:59.379Z,35.07
2018-03-26T15:06:27.530Z,37.10
2018-03-26T15:08:55.668Z,38.10
2018-03-26T15:11:23.819Z,34.80
2018-03-26T15:13:52.331Z,33.47
2018-03-26T15:16:20.642Z,39.33
2018-03-26T15:18:48.773Z,39.07
2018-03-26T15:21:16.918Z,34.97
2018-03-26T15:23:45.047Z,38.53
2018-03-26T15:26:13.209Z,35.00
2018-03-26T15:28:41.388Z,33.90
2018-03-26T15:31:10.290Z,35.80
2018-03-26T15:33:38.425Z,35.50
2018-03-26T15:36:06.565Z,35.90
2018-03-26T15:38:34.693Z,32.97
2018-03-26T15:41:03.183Z,37.97
2018-03-26T15:43:31.319Z,37.57
2018-03-26T15:45:59.454Z,34.43
2018-03-26T15:48:27.595Z,36.97
2018-03-26T15:50:55.743Z,37.97
2018-03-26T15:53:24.640Z,39.53
2018-03-26T15:55:53.566Z,42.70
2018-03-26T15:58:21.702Z,37.03
2018-03-26T16:00:50.602Z,37.70
2018-03-26T16:03:24.355Z,35.67
2018-03-26T16:05:52.479Z,40.77
2018-03-26T16:08:20.626Z,40.60
2018-03-26T16:10:49.528Z,40.73
2018-03-26T16:13:18.440Z,44.93
2018-03-26T16:15:46.607Z,48.40
2018-03-26T16:18:14.751Z,46.90
2018-03-26T16:20:43.645Z,39.00
2018-03-26T16:23:12.570Z,40.50
2018-03-26T16:25:40.702Z,40.40
2018-03-26T16:28:09.625Z,40.23
2018-03-26T16:30:37.751Z,40.77
2018-03-26T16:33:06.254Z,38.40
2018-03-26T16:35:35.158Z,39.10
2018-03-26T16:38:03.290Z,40.00
2018-03-26T16:40:32.208Z,37.10
2018-03-26T16:43:05.281Z,51.10
2018-03-26T16:45:34.176Z,41.00
2018-03-26T16:48:03.077Z,46.47
2018-03-26T16:50:31.227Z,43.30
2018-03-26T16:52:59.530Z,41.43
2018-03-26T16:55:27.686Z,41.40
2018-03-26T16:57:56.574Z,42.50
2018-03-26T17:00:24.722Z,43.53
2018-03-26T17:02:52.879Z,39.90
2018-03-26T17:05:21.017Z,49.73
2018-03-26T17:07:49.143Z,47.10
2018-03-26T17:10:18.063Z,41.60
2018-03-26T17:12:46.489Z,41.53
2018-03-26T17:15:14.848Z,42.70
2018-03-26T17:17:42.984Z,39.80
2018-03-26T17:20:11.133Z,51.23
2018-03-26T17:22:39.271Z,49.03
2018-03-26T17:25:07.415Z,61.60
2018-03-26T17:27:35.610Z,68.00
2018-03-26T17:30:04.492Z,60.57
2018-03-26T17:32:32.614Z,60.13
2018-03-26T17:35:00.770Z,64.47
2018-03-26T17:37:28.908Z,57.50
2018-03-26T17:39:57.059Z,47.90
2018-03-26T17:42:25.199Z,39.80
2018-03-26T17:44:54.100Z,37.13
2018-03-26T17:47:22.259Z,36.27
2018-03-26T17:49:51.147Z,35.93
2018-03-26T17:52:20.054Z,35.03
2018-03-26T17:54:48.200Z,36.90
2018-03-26T17:57:16.361Z,35.60
2018-03-26T17:59:44.506Z,37.33
2018-03-26T18:02:12.667Z,38.37
2018-03-26T18:04:40.796Z,38.43
2018-03-26T18:07:09.706Z,36.77
2018-03-26T18:09:37.843Z,43.03
2018-03-26T18:12:05.986Z,36.63
2018-03-26T18:14:34.107Z,34.80
2018-03-26T18:17:03.055Z,38.20
2018-03-26T18:19:31.171Z,36.63
2018-03-26T18:22:00.154Z,44.13
2018-03-26T18:24:29.053Z,41.53
2018-03-26T18:26:57.963Z,36.10
2018-03-26T18:29:26.096Z,36.87
2018-03-26T18:31:55.010Z,35.77
2018-03-26T18:34:23.168Z,36.73
2018-03-26T18:36:52.058Z,36.90
2018-03-26T18:39:20.971Z,35.80
2018-03-26T18:41:49.116Z,38.50
2018-03-26T18:44:22.505Z,37.37
2018-03-26T18:46:53.173Z,37.03
2018-03-26T18:49:21.329Z,36.97
2018-03-26T18:51:56.468Z,34.30
2018-03-26T18:54:26.442Z,36.37
2018-03-26T18:56:55.258Z,36.30
2018-03-26T18:59:26.230Z,37.33
2018-03-26T19:01:54.648Z,34.80
2018-03-26T19:04:24.884Z,37.37
2018-03-26T19:06:53.006Z,35.90
2018-03-26T19:09:26.854Z,36.17
2018-03-26T19:11:57.843Z,37.40
2018-03-26T19:14:27.266Z,35.10
2018-03-26T19:16:56.544Z,34.77
2018-03-26T19:19:27.338Z,39.23
2018-03-26T19:21:57.743Z,35.80
2018-03-26T19:24:29.179Z,34.43
2018-03-26T19:26:59.019Z,35.27
2018-03-26T19:29:27.914Z,33.80
2018-03-26T19:31:56.390Z,36.20
2018-03-26T19:34:27.775Z,35.70
2018-03-26T19:36:58.742Z,31.40
2018-03-26T19:39:26.890Z,33.73
2018-03-26T19:41:57.047Z,33.27
2018-03-26T19:44:30.750Z,32.90
2018-03-26T19:46:59.639Z,34.67
2018-03-26T19:49:29.810Z,32.67
2018-03-26T19:52:02.479Z,33.03
2018-03-26T19:54:32.950Z,36.43
2018-03-26T19:57:03.411Z,40.90
2018-03-26T19:59:33.383Z,42.30
2018-03-26T20:02:07.256Z,40.90
2018-03-26T20:04:36.674Z,36.23
2018-03-26T20:07:07.462Z,36.83
2018-03-26T20:09:39.659Z,33.80
2018-03-26T20:12:09.526Z,34.40
2018-03-26T20:14:39.538Z,32.70
2018-03-26T20:17:08.276Z,29.57
2018-03-26T20:19:36.438Z,29.40
2018-03-26T20:22:04.791Z,33.00
2018-03-26T20:24:32.947Z,32.30
2018-03-26T20:27:01.110Z,32.73
2018-03-26T20:29:29.263Z,31.30
2018-03-26T20:31:57.414Z,32.83
2018-03-26T20:34:25.609Z,30.33
2018-03-26T20:36:53.731Z,36.47
2018-03-26T20:39:21.860Z,40.67
2018-03-26T20:41:50.008Z,41.07
2018-03-26T20:44:18.901Z,46.20
2018-03-26T20:46:47.062Z,39.53
2018-03-26T20:49:15.202Z,49.83
2018-03-26T20:51:43.470Z,37.77
2018-03-26T20:54:11.610Z,32.40
2018-03-26T20:56:39.784Z,32.60
2018-03-26T20:59:08.807Z,33.15
2018-03-26T21:01:37.005Z,31.50
2018-03-26T21:04:05.142Z,32.60
2018-03-26T21:06:33.322Z,33.43
2018-03-26T21:09:01.547Z,30.17
2018-03-26T21:11:29.718Z,30.63
2018-03-26T21:13:57.869Z,36.50
2018-03-26T21:16:25.999Z,32.97
2018-03-26T21:18:59.329Z,30.30
2018-03-26T21:21:28.680Z,35.75
2018-03-26T21:23:56.884Z,33.38
2018-03-26T21:26:25.033Z,41.88
2018-03-26T21:28:53.202Z,34.75
2018-03-26T21:31:21.385Z,38.80
2018-03-26T21:33:49.570Z,42.15
2018-03-26T21:36:17.876Z,34.90
2018-03-26T21:38:46.050Z,39.08
2018-03-26T21:41:14.201Z,39.50
2018-03-26T21:43:42.415Z,40.10
2018-03-26T21:46:10.785Z,45.90
2018-03-26T21:48:39.748Z,32.87
2018-03-26T21:51:08.653Z,32.30
2018-03-26T21:53:36.822Z,35.63
2018-03-26T21:56:04.984Z,30.30
2018-03-26T21:58:33.133Z,39.53
2018-03-26T22:01:01.283Z,36.70
2018-03-26T22:03:30.199Z,33.33
2018-03-26T22:05:58.349Z,44.45
2018-03-26T22:08:27.891Z,36.78
2018-03-26T22:10:56.151Z,37.80
2018-03-26T22:13:24.294Z,34.47
2018-03-26T22:15:52.450Z,35.58
2018-03-26T22:18:21.365Z,38.07
2018-03-26T22:20:49.524Z,36.40
2018-03-26T22:23:17.674Z,39.43
2018-03-26T22:25:45.824Z,36.10
2018-03-26T22:28:18.683Z,31.30
2018-03-26T22:30:48.446Z,30.07
2018-03-26T22:33:16.576Z,27.00
2018-03-26T22:35:44.782Z,26.65
2018-03-26T22:38:13.694Z,29.37
2018-03-26T22:40:42.679Z,25.42
2018-03-26T22:43:10.825Z,33.00
2018-03-26T22:45:39.094Z,28.98
2018-03-26T22:48:08.040Z,26.60
2018-03-26T22:50:36.219Z,27.67
2018-03-26T22:53:04.372Z,34.08
2018-03-26T22:55:32.523Z,27.55
2018-03-26T22:58:01.423Z,34.30
2018-03-26T23:00:29.623Z,35.15
2018-03-26T23:02:57.793Z,33.88
2018-03-26T23:05:25.944Z,30.90
2018-03-26T23:07:54.127Z,35.90
2018-03-26T23:10:22.378Z,34.63
2018-03-26T23:12:51.311Z,32.78
2018-03-26T23:15:19.472Z,31.35
2018-03-26T23:17:47.612Z,31.27
2018-03-26T23:20:16.533Z,35.00
2018-03-26T23:22:48.577Z,29.87
2018-03-26T23:25:17.483Z,32.17
2018-03-26T23:27:45.622Z,30.60
2018-03-26T23:30:13.938Z,31.85
2018-03-26T23:32:42.079Z,30.80
2018-03-26T23:35:10.246Z,39.17
2018-03-26T23:37:38.406Z,26.70
2018-03-26T23:40:06.571Z,35.97
2018-03-26T23:42:34.702Z,30.00
2018-03-26T23:45:02.844Z,28.45
2018-03-26T23:47:31.309Z,37.05
2018-03-26T23:50:00.198Z,31.75
2018-03-26T23:52:28.485Z,35.40
2018-03-26T23:54:56.635Z,33.55
2018-03-26T23:57:25.558Z,31.83
2018-03-26T23:59:53.727Z,30.90
